sensor_id;sensor_type;location;lat;lon;timestamp;P1;durP1;ratioP1;P2;durP2;ratioP2
27847;SDS011;15212;48.830;8.730;2023-04-10T00:01:04;18.57;;;9.65;;
27847;SDS011;15212;48.830;8.730;2023-04-10T00:03:33;18.02;;;9.45;;
27847;SDS011;15212;48.830;8.730;2023-04-10T00:06:01;17.95;;;8.95;;
27847;SDS011;15212;48.830;8.730;2023-04-10T00:08:30;17.17;;;9.08;;
27847;SDS011;15212;48.830;8.730;2023-04-10T00:10:58;17.77;;;9.20;;
27847;SDS011;15212;48.830;8.730;2023-04-10T00:13:27;15.70;;;8.95;;
27847;SDS011;15212;48.830;8.730;2023-04-10T00:15:56;16.67;;;8.93;;
27847;SDS011;15212;48.830;8.730;2023-04-10T00:18:24;17.55;;;9.55;;
27847;SDS011;15212;48.830;8.730;2023-04-10T00:20:53;16.45;;;9.60;;
27847;SDS011;15212;48.830;8.730;2023-04-10T00:23:22;16.20;;;9.23;;
27847;SDS011;15212;48.830;8.730;2023-04-10T00:25:51;18.35;;;10.13;;
27847;SDS011;15212;48.830;8.730;2023-04-10T00:28:19;15.25;;;8.68;;
27847;SDS011;15212;48.830;8.730;2023-04-10T00:30:47;15.75;;;9.13;;
27847;SDS011;15212;48.830;8.730;2023-04-10T00:33:16;16.50;;;9.70;;
27847;SDS011;15212;48.830;8.730;2023-04-10T00:35:44;18.27;;;9.65;;
27847;SDS011;15212;48.830;8.730;2023-04-10T00:38:12;16.35;;;9.10;;
27847;SDS011;15212;48.830;8.730;2023-04-10T00:40:41;19.45;;;9.70;;
27847;SDS011;15212;48.830;8.730;2023-04-10T00:43:10;20.90;;;9.98;;
27847;SDS011;15212;48.830;8.730;2023-04-10T00:45:38;16.82;;;9.05;;
27847;SDS011;15212;48.830;8.730;2023-04-10T00:48:07;17.52;;;9.75;;
27847;SDS011;15212;48.830;8.730;2023-04-10T00:50:36;16.57;;;9.38;;
27847;SDS011;15212;48.830;8.730;2023-04-10T00:53:04;16.77;;;9.13;;
27847;SDS011;15212;48.830;8.730;2023-04-10T00:55:32;17.20;;;9.23;;
27847;SDS011;15212;48.830;8.730;2023-04-10T00:58:01;15.83;;;8.58;;
27847;SDS011;15212;48.830;8.730;2023-04-10T01:00:30;18.23;;;9.88;;
27847;SDS011;15212;48.830;8.730;2023-04-10T01:02:58;17.57;;;9.10;;
27847;SDS011;15212;48.830;8.730;2023-04-10T01:05:28;18.23;;;9.20;;
27847;SDS011;15212;48.830;8.730;2023-04-10T01:08:16;19.50;;;9.53;;
27847;SDS011;15212;48.830;8.730;2023-04-10T01:11:06;18.23;;;9.70;;
27847;SDS011;15212;48.830;8.730;2023-04-10T01:13:42;18.87;;;9.25;;
27847;SDS011;15212;48.830;8.730;2023-04-10T01:16:38;17.30;;;9.30;;
27847;SDS011;15212;48.830;8.730;2023-04-10T01:18:52;16.73;;;9.03;;
27847;SDS011;15212;48.830;8.730;2023-04-10T01:21:49;17.40;;;9.35;;
27847;SDS011;15212;48.830;8.730;2023-04-10T01:27:10;16.32;;;9.33;;
27847;SDS011;15212;48.830;8.730;2023-04-10T01:30:00;16.67;;;8.78;;
27847;SDS011;15212;48.830;8.730;2023-04-10T01:32:31;17.75;;;9.40;;
27847;SDS011;15212;48.830;8.730;2023-04-10T01:35:03;16.85;;;8.53;;
27847;SDS011;15212;48.830;8.730;2023-04-10T01:37:36;15.38;;;8.63;;
27847;SDS011;15212;48.830;8.730;2023-04-10T01:40:07;18.60;;;9.25;;
27847;SDS011;15212;48.830;8.730;2023-04-10T01:42:40;16.02;;;8.83;;
27847;SDS011;15212;48.830;8.730;2023-04-10T01:45:27;16.42;;;9.05;;
27847;SDS011;15212;48.830;8.730;2023-04-10T01:47:56;16.35;;;8.88;;
27847;SDS011;15212;48.830;8.730;2023-04-10T01:50:26;15.63;;;8.83;;
27847;SDS011;15212;48.830;8.730;2023-04-10T01:52:56;15.83;;;8.20;;
27847;SDS011;15212;48.830;8.730;2023-04-10T01:55:27;17.30;;;9.63;;
27847;SDS011;15212;48.830;8.730;2023-04-10T01:57:56;15.60;;;8.50;;
27847;SDS011;15212;48.830;8.730;2023-04-10T02:00:26;15.78;;;8.55;;
27847;SDS011;15212;48.830;8.730;2023-04-10T02:02:55;15.58;;;8.53;;
27847;SDS011;15212;48.830;8.730;2023-04-10T02:05:24;16.82;;;9.20;;
27847;SDS011;15212;48.830;8.730;2023-04-10T02:08:04;15.83;;;9.20;;
27847;SDS011;15212;48.830;8.730;2023-04-10T02:10:57;17.55;;;8.73;;
27847;SDS011;15212;48.830;8.730;2023-04-10T02:13:28;14.43;;;8.30;;
27847;SDS011;15212;48.830;8.730;2023-04-10T02:15:59;15.58;;;8.20;;
27847;SDS011;15212;48.830;8.730;2023-04-10T02:18:31;14.93;;;8.15;;
27847;SDS011;15212;48.830;8.730;2023-04-10T02:21:01;16.23;;;8.98;;
27847;SDS011;15212;48.830;8.730;2023-04-10T02:23:30;17.30;;;9.15;;
27847;SDS011;15212;48.830;8.730;2023-04-10T02:26:04;16.10;;;9.03;;
27847;SDS011;15212;48.830;8.730;2023-04-10T02:28:38;15.78;;;8.40;;
27847;SDS011;15212;48.830;8.730;2023-04-10T02:31:06;16.93;;;9.50;;
27847;SDS011;15212;48.830;8.730;2023-04-10T02:33:35;16.30;;;9.03;;
27847;SDS011;15212;48.830;8.730;2023-04-10T02:36:03;15.83;;;8.78;;
27847;SDS011;15212;48.830;8.730;2023-04-10T02:38:32;15.95;;;8.25;;
27847;SDS011;15212;48.830;8.730;2023-04-10T02:41:00;15.00;;;8.43;;
27847;SDS011;15212;48.830;8.730;2023-04-10T02:43:29;15.08;;;8.03;;
27847;SDS011;15212;48.830;8.730;2023-04-10T02:45:57;15.65;;;8.20;;
27847;SDS011;15212;48.830;8.730;2023-04-10T02:48:26;12.90;;;7.20;;
27847;SDS011;15212;48.830;8.730;2023-04-10T02:50:57;13.90;;;7.78;;
27847;SDS011;15212;48.830;8.730;2023-04-10T02:53:25;15.03;;;8.20;;
27847;SDS011;15212;48.830;8.730;2023-04-10T02:55:53;15.03;;;8.63;;
27847;SDS011;15212;48.830;8.730;2023-04-10T02:58:22;14.10;;;7.67;;
27847;SDS011;15212;48.830;8.730;2023-04-10T03:00:50;14.80;;;7.70;;
27847;SDS011;15212;48.830;8.730;2023-04-10T03:03:19;12.70;;;7.33;;
27847;SDS011;15212;48.830;8.730;2023-04-10T03:05:47;12.25;;;7.12;;
27847;SDS011;15212;48.830;8.730;2023-04-10T03:08:16;14.15;;;7.28;;
27847;SDS011;15212;48.830;8.730;2023-04-10T03:10:45;14.38;;;7.33;;
27847;SDS011;15212;48.830;8.730;2023-04-10T03:13:14;14.68;;;8.00;;
27847;SDS011;15212;48.830;8.730;2023-04-10T03:15:43;13.13;;;7.53;;
27847;SDS011;15212;48.830;8.730;2023-04-10T03:18:11;16.15;;;7.83;;
27847;SDS011;15212;48.830;8.730;2023-04-10T03:20:40;14.03;;;7.95;;
27847;SDS011;15212;48.830;8.730;2023-04-10T03:23:09;13.88;;;7.72;;
27847;SDS011;15212;48.830;8.730;2023-04-10T03:25:37;14.28;;;7.90;;
27847;SDS011;15212;48.830;8.730;2023-04-10T03:28:06;13.53;;;7.60;;
27847;SDS011;15212;48.830;8.730;2023-04-10T03:30:34;14.35;;;7.17;;
27847;SDS011;15212;48.830;8.730;2023-04-10T03:33:03;14.07;;;7.40;;
27847;SDS011;15212;48.830;8.730;2023-04-10T03:35:31;13.80;;;7.12;;
27847;SDS011;15212;48.830;8.730;2023-04-10T03:37:59;16.02;;;8.08;;
27847;SDS011;15212;48.830;8.730;2023-04-10T03:40:28;15.68;;;7.75;;
27847;SDS011;15212;48.830;8.730;2023-04-10T03:42:58;15.50;;;8.20;;
27847;SDS011;15212;48.830;8.730;2023-04-10T03:45:27;13.90;;;7.90;;
27847;SDS011;15212;48.830;8.730;2023-04-10T03:47:55;16.60;;;7.83;;
27847;SDS011;15212;48.830;8.730;2023-04-10T03:50:25;14.07;;;7.08;;
27847;SDS011;15212;48.830;8.730;2023-04-10T03:52:53;13.13;;;7.53;;
27847;SDS011;15212;48.830;8.730;2023-04-10T03:55:22;16.15;;;7.70;;
27847;SDS011;15212;48.830;8.730;2023-04-10T03:57:50;12.47;;;7.10;;
27847;SDS011;15212;48.830;8.730;2023-04-10T04:00:19;16.48;;;7.60;;
27847;SDS011;15212;48.830;8.730;2023-04-10T04:02:48;15.48;;;7.83;;
27847;SDS011;15212;48.830;8.730;2023-04-10T04:05:16;13.43;;;7.55;;
27847;SDS011;15212;48.830;8.730;2023-04-10T04:07:45;13.55;;;7.08;;
27847;SDS011;15212;48.830;8.730;2023-04-10T04:10:13;14.78;;;7.97;;
27847;SDS011;15212;48.830;8.730;2023-04-10T04:12:41;13.95;;;7.42;;
27847;SDS011;15212;48.830;8.730;2023-04-10T04:15:10;12.78;;;7.05;;
27847;SDS011;15212;48.830;8.730;2023-04-10T04:17:38;15.78;;;8.35;;
27847;SDS011;15212;48.830;8.730;2023-04-10T04:20:07;16.32;;;7.62;;
27847;SDS011;15212;48.830;8.730;2023-04-10T04:22:36;13.45;;;7.08;;
27847;SDS011;15212;48.830;8.730;2023-04-10T04:25:04;13.98;;;7.37;;
27847;SDS011;15212;48.830;8.730;2023-04-10T04:27:35;13.80;;;8.10;;
27847;SDS011;15212;48.830;8.730;2023-04-10T04:30:04;15.72;;;8.08;;
27847;SDS011;15212;48.830;8.730;2023-04-10T04:32:33;14.15;;;7.45;;
27847;SDS011;15212;48.830;8.730;2023-04-10T04:35:02;15.28;;;8.05;;
27847;SDS011;15212;48.830;8.730;2023-04-10T04:37:30;14.25;;;7.90;;
27847;SDS011;15212;48.830;8.730;2023-04-10T04:39:59;13.20;;;7.08;;
27847;SDS011;15212;48.830;8.730;2023-04-10T04:42:28;14.35;;;8.03;;
27847;SDS011;15212;48.830;8.730;2023-04-10T04:44:57;16.82;;;8.73;;
27847;SDS011;15212;48.830;8.730;2023-04-10T04:47:25;14.63;;;8.33;;
27847;SDS011;15212;48.830;8.730;2023-04-10T04:49:54;12.75;;;7.42;;
27847;SDS011;15212;48.830;8.730;2023-04-10T04:52:22;13.55;;;7.08;;
27847;SDS011;15212;48.830;8.730;2023-04-10T04:54:52;15.23;;;7.83;;
27847;SDS011;15212;48.830;8.730;2023-04-10T04:57:20;13.13;;;7.50;;
27847;SDS011;15212;48.830;8.730;2023-04-10T04:59:48;16.05;;;7.60;;
27847;SDS011;15212;48.830;8.730;2023-04-10T05:02:17;14.18;;;8.15;;
27847;SDS011;15212;48.830;8.730;2023-04-10T05:04:47;13.98;;;7.53;;
27847;SDS011;15212;48.830;8.730;2023-04-10T05:07:16;14.75;;;8.45;;
27847;SDS011;15212;48.830;8.730;2023-04-10T05:09:44;15.43;;;7.75;;
27847;SDS011;15212;48.830;8.730;2023-04-10T05:12:12;12.90;;;7.55;;
27847;SDS011;15212;48.830;8.730;2023-04-10T05:14:41;13.35;;;7.58;;
27847;SDS011;15212;48.830;8.730;2023-04-10T05:17:10;14.28;;;7.70;;
27847;SDS011;15212;48.830;8.730;2023-04-10T05:19:39;14.40;;;8.18;;
27847;SDS011;15212;48.830;8.730;2023-04-10T05:22:08;13.38;;;7.37;;
27847;SDS011;15212;48.830;8.730;2023-04-10T05:24:36;14.87;;;7.65;;
27847;SDS011;15212;48.830;8.730;2023-04-10T05:27:05;12.85;;;7.50;;
27847;SDS011;15212;48.830;8.730;2023-04-10T05:29:33;13.72;;;7.50;;
27847;SDS011;15212;48.830;8.730;2023-04-10T05:32:01;13.00;;;7.17;;
27847;SDS011;15212;48.830;8.730;2023-04-10T05:34:30;13.83;;;7.40;;
27847;SDS011;15212;48.830;8.730;2023-04-10T05:36:58;15.55;;;7.97;;
27847;SDS011;15212;48.830;8.730;2023-04-10T05:39:26;12.98;;;6.85;;
27847;SDS011;15212;48.830;8.730;2023-04-10T05:41:55;12.58;;;7.00;;
27847;SDS011;15212;48.830;8.730;2023-04-10T05:44:23;11.88;;;6.85;;
27847;SDS011;15212;48.830;8.730;2023-04-10T05:46:51;12.80;;;6.92;;
27847;SDS011;15212;48.830;8.730;2023-04-10T05:49:20;13.38;;;6.92;;
27847;SDS011;15212;48.830;8.730;2023-04-10T05:51:48;12.25;;;7.08;;
27847;SDS011;15212;48.830;8.730;2023-04-10T05:54:18;11.73;;;6.83;;
27847;SDS011;15212;48.830;8.730;2023-04-10T05:56:46;10.50;;;6.33;;
27847;SDS011;15212;48.830;8.730;2023-04-10T05:59:15;10.82;;;6.60;;
27847;SDS011;15212;48.830;8.730;2023-04-10T06:01:43;12.93;;;6.92;;
27847;SDS011;15212;48.830;8.730;2023-04-10T06:04:12;13.55;;;6.90;;
27847;SDS011;15212;48.830;8.730;2023-04-10T06:06:40;11.05;;;6.67;;
27847;SDS011;15212;48.830;8.730;2023-04-10T06:09:09;11.30;;;6.80;;
27847;SDS011;15212;48.830;8.730;2023-04-10T06:11:37;11.97;;;6.90;;
27847;SDS011;15212;48.830;8.730;2023-04-10T06:14:05;13.13;;;6.78;;
27847;SDS011;15212;48.830;8.730;2023-04-10T06:16:34;13.35;;;6.80;;
27847;SDS011;15212;48.830;8.730;2023-04-10T06:19:02;10.80;;;6.03;;
27847;SDS011;15212;48.830;8.730;2023-04-10T06:21:31;9.73;;;5.87;;
27847;SDS011;15212;48.830;8.730;2023-04-10T06:23:59;11.28;;;6.37;;
27847;SDS011;15212;48.830;8.730;2023-04-10T06:26:28;10.32;;;5.75;;
27847;SDS011;15212;48.830;8.730;2023-04-10T06:28:56;10.80;;;6.00;;
27847;SDS011;15212;48.830;8.730;2023-04-10T06:31:24;11.10;;;6.10;;
27847;SDS011;15212;48.830;8.730;2023-04-10T06:33:53;10.43;;;5.95;;
27847;SDS011;15212;48.830;8.730;2023-04-10T06:36:21;10.40;;;6.22;;
27847;SDS011;15212;48.830;8.730;2023-04-10T06:38:50;10.15;;;6.08;;
27847;SDS011;15212;48.830;8.730;2023-04-10T06:41:19;9.98;;;5.80;;
27847;SDS011;15212;48.830;8.730;2023-04-10T06:43:47;9.73;;;5.45;;
27847;SDS011;15212;48.830;8.730;2023-04-10T06:46:16;10.98;;;6.05;;
27847;SDS011;15212;48.830;8.730;2023-04-10T06:48:44;11.12;;;5.87;;
27847;SDS011;15212;48.830;8.730;2023-04-10T06:51:12;9.48;;;5.37;;
27847;SDS011;15212;48.830;8.730;2023-04-10T06:53:41;10.05;;;5.65;;
27847;SDS011;15212;48.830;8.730;2023-04-10T06:56:09;10.40;;;6.03;;
27847;SDS011;15212;48.830;8.730;2023-04-10T06:58:38;10.85;;;5.75;;
27847;SDS011;15212;48.830;8.730;2023-04-10T07:01:06;9.83;;;5.78;;
27847;SDS011;15212;48.830;8.730;2023-04-10T07:03:34;10.82;;;5.78;;
27847;SDS011;15212;48.830;8.730;2023-04-10T07:06:03;9.35;;;5.37;;
27847;SDS011;15212;48.830;8.730;2023-04-10T07:08:32;9.35;;;5.40;;
27847;SDS011;15212;48.830;8.730;2023-04-10T07:11:01;11.22;;;5.50;;
27847;SDS011;15212;48.830;8.730;2023-04-10T07:13:29;8.58;;;5.45;;
27847;SDS011;15212;48.830;8.730;2023-04-10T07:15:57;9.73;;;5.28;;
27847;SDS011;15212;48.830;8.730;2023-04-10T07:18:26;7.85;;;4.97;;
27847;SDS011;15212;48.830;8.730;2023-04-10T07:20:54;8.93;;;5.28;;
27847;SDS011;15212;48.830;8.730;2023-04-10T07:23:23;10.65;;;5.72;;
27847;SDS011;15212;48.830;8.730;2023-04-10T07:25:51;8.68;;;5.03;;
27847;SDS011;15212;48.830;8.730;2023-04-10T07:28:19;9.08;;;5.37;;
27847;SDS011;15212;48.830;8.730;2023-04-10T07:30:48;8.38;;;5.15;;
27847;SDS011;15212;48.830;8.730;2023-04-10T07:33:16;8.15;;;4.92;;
27847;SDS011;15212;48.830;8.730;2023-04-10T07:35:45;8.05;;;5.08;;
27847;SDS011;15212;48.830;8.730;2023-04-10T07:38:13;9.13;;;5.03;;
27847;SDS011;15212;48.830;8.730;2023-04-10T07:40:42;8.43;;;4.80;;
27847;SDS011;15212;48.830;8.730;2023-04-10T07:43:11;8.28;;;4.90;;
27847;SDS011;15212;48.830;8.730;2023-04-10T07:45:39;8.00;;;5.00;;
27847;SDS011;15212;48.830;8.730;2023-04-10T07:48:07;9.75;;;4.92;;
27847;SDS011;15212;48.830;8.730;2023-04-10T07:50:37;6.90;;;4.37;;
27847;SDS011;15212;48.830;8.730;2023-04-10T07:53:05;8.80;;;4.50;;
27847;SDS011;15212;48.830;8.730;2023-04-10T07:55:42;6.28;;;4.08;;
27847;SDS011;15212;48.830;8.730;2023-04-10T07:58:09;6.25;;;4.15;;
27847;SDS011;15212;48.830;8.730;2023-04-10T08:00:38;7.85;;;4.33;;
27847;SDS011;15212;48.830;8.730;2023-04-10T08:03:06;6.47;;;4.05;;
27847;SDS011;15212;48.830;8.730;2023-04-10T08:05:34;6.00;;;3.90;;
27847;SDS011;15212;48.830;8.730;2023-04-10T08:08:03;6.03;;;3.90;;
27847;SDS011;15212;48.830;8.730;2023-04-10T08:10:31;6.05;;;3.62;;
27847;SDS011;15212;48.830;8.730;2023-04-10T08:13:02;7.97;;;3.98;;
27847;SDS011;15212;48.830;8.730;2023-04-10T08:15:31;5.53;;;3.75;;
27847;SDS011;15212;48.830;8.730;2023-04-10T08:18:00;6.72;;;4.33;;
27847;SDS011;15212;48.830;8.730;2023-04-10T08:20:28;6.85;;;3.90;;
27847;SDS011;15212;48.830;8.730;2023-04-10T08:22:58;5.90;;;3.60;;
27847;SDS011;15212;48.830;8.730;2023-04-10T08:25:27;6.42;;;4.37;;
27847;SDS011;15212;48.830;8.730;2023-04-10T08:27:56;9.93;;;4.58;;
27847;SDS011;15212;48.830;8.730;2023-04-10T08:30:25;7.05;;;4.50;;
27847;SDS011;15212;48.830;8.730;2023-04-10T08:32:53;6.33;;;3.80;;
27847;SDS011;15212;48.830;8.730;2023-04-10T08:35:22;7.25;;;3.83;;
27847;SDS011;15212;48.830;8.730;2023-04-10T08:37:50;6.58;;;4.20;;
27847;SDS011;15212;48.830;8.730;2023-04-10T08:40:18;7.33;;;4.30;;
27847;SDS011;15212;48.830;8.730;2023-04-10T08:42:47;6.72;;;4.33;;
27847;SDS011;15212;48.830;8.730;2023-04-10T08:45:15;8.23;;;4.15;;
27847;SDS011;15212;48.830;8.730;2023-04-10T08:47:44;6.12;;;3.87;;
27847;SDS011;15212;48.830;8.730;2023-04-10T08:50:14;5.53;;;3.70;;
27847;SDS011;15212;48.830;8.730;2023-04-10T08:52:44;5.55;;;3.30;;
27847;SDS011;15212;48.830;8.730;2023-04-10T08:55:17;5.72;;;3.52;;
27847;SDS011;15212;48.830;8.730;2023-04-10T08:57:46;7.17;;;3.80;;
27847;SDS011;15212;48.830;8.730;2023-04-10T09:00:15;5.50;;;3.87;;
27847;SDS011;15212;48.830;8.730;2023-04-10T09:02:43;5.58;;;3.55;;
27847;SDS011;15212;48.830;8.730;2023-04-10T09:05:12;5.40;;;3.58;;
27847;SDS011;15212;48.830;8.730;2023-04-10T09:07:40;4.83;;;3.50;;
27847;SDS011;15212;48.830;8.730;2023-04-10T09:10:09;4.90;;;3.08;;
27847;SDS011;15212;48.830;8.730;2023-04-10T09:12:44;5.42;;;3.40;;
27847;SDS011;15212;48.830;8.730;2023-04-10T09:15:14;4.55;;;3.10;;
27847;SDS011;15212;48.830;8.730;2023-04-10T09:17:55;6.10;;;3.62;;
27847;SDS011;15212;48.830;8.730;2023-04-10T09:20:27;4.35;;;3.05;;
27847;SDS011;15212;48.830;8.730;2023-04-10T09:22:58;4.33;;;2.90;;
27847;SDS011;15212;48.830;8.730;2023-04-10T09:25:31;3.92;;;2.55;;
27847;SDS011;15212;48.830;8.730;2023-04-10T09:28:04;4.28;;;2.50;;
27847;SDS011;15212;48.830;8.730;2023-04-10T09:30:40;4.33;;;2.40;;
27847;SDS011;15212;48.830;8.730;2023-04-10T09:33:22;4.50;;;2.70;;
27847;SDS011;15212;48.830;8.730;2023-04-10T09:35:53;3.55;;;2.52;;
27847;SDS011;15212;48.830;8.730;2023-04-10T09:41:05;3.85;;;2.40;;
27847;SDS011;15212;48.830;8.730;2023-04-10T09:43:34;3.08;;;2.15;;
27847;SDS011;15212;48.830;8.730;2023-04-10T09:46:03;3.25;;;2.27;;
27847;SDS011;15212;48.830;8.730;2023-04-10T09:48:32;3.47;;;2.05;;
27847;SDS011;15212;48.830;8.730;2023-04-10T09:51:01;3.10;;;2.05;;
27847;SDS011;15212;48.830;8.730;2023-04-10T09:53:29;4.58;;;2.30;;
27847;SDS011;15212;48.830;8.730;2023-04-10T09:55:58;2.80;;;2.25;;
27847;SDS011;15212;48.830;8.730;2023-04-10T09:58:27;4.30;;;2.52;;
27847;SDS011;15212;48.830;8.730;2023-04-10T10:00:57;3.20;;;1.98;;
27847;SDS011;15212;48.830;8.730;2023-04-10T10:03:25;4.12;;;2.30;;
27847;SDS011;15212;48.830;8.730;2023-04-10T10:05:54;2.90;;;2.20;;
27847;SDS011;15212;48.830;8.730;2023-04-10T10:08:22;3.20;;;2.02;;
27847;SDS011;15212;48.830;8.730;2023-04-10T10:10:53;3.42;;;2.20;;
27847;SDS011;15212;48.830;8.730;2023-04-10T10:13:30;2.58;;;1.90;;
27847;SDS011;15212;48.830;8.730;2023-04-10T10:16:24;2.70;;;1.80;;
27847;SDS011;15212;48.830;8.730;2023-04-10T10:18:58;3.05;;;1.87;;
27847;SDS011;15212;48.830;8.730;2023-04-10T10:21:50;3.40;;;2.10;;
27847;SDS011;15212;48.830;8.730;2023-04-10T10:24:20;2.87;;;2.10;;
27847;SDS011;15212;48.830;8.730;2023-04-10T10:26:51;2.83;;;1.95;;
27847;SDS011;15212;48.830;8.730;2023-04-10T10:29:22;3.20;;;2.15;;
27847;SDS011;15212;48.830;8.730;2023-04-10T10:31:51;2.80;;;1.95;;
27847;SDS011;15212;48.830;8.730;2023-04-10T10:34:21;2.75;;;1.80;;
27847;SDS011;15212;48.830;8.730;2023-04-10T10:36:50;2.98;;;1.92;;
27847;SDS011;15212;48.830;8.730;2023-04-10T10:39:31;2.60;;;2.00;;
27847;SDS011;15212;48.830;8.730;2023-04-10T10:47:40;2.70;;;1.82;;
27847;SDS011;15212;48.830;8.730;2023-04-10T10:50:19;2.92;;;1.80;;
27847;SDS011;15212;48.830;8.730;2023-04-10T10:52:48;2.90;;;1.90;;
27847;SDS011;15212;48.830;8.730;2023-04-10T10:57:57;2.25;;;1.77;;
27847;SDS011;15212;48.830;8.730;2023-04-10T11:05:58;3.75;;;2.22;;
27847;SDS011;15212;48.830;8.730;2023-04-10T11:11:20;3.75;;;1.90;;
27847;SDS011;15212;48.830;8.730;2023-04-10T11:16:40;2.83;;;2.02;;
27847;SDS011;15212;48.830;8.730;2023-04-10T11:19:04;2.77;;;1.80;;
27847;SDS011;15212;48.830;8.730;2023-04-10T11:21:34;3.37;;;2.10;;
27847;SDS011;15212;48.830;8.730;2023-04-10T11:24:02;3.12;;;2.00;;
27847;SDS011;15212;48.830;8.730;2023-04-10T11:31:58;2.77;;;1.90;;
27847;SDS011;15212;48.830;8.730;2023-04-10T11:34:29;3.08;;;1.82;;
27847;SDS011;15212;48.830;8.730;2023-04-10T11:37:01;3.15;;;2.02;;
27847;SDS011;15212;48.830;8.730;2023-04-10T11:39:29;2.37;;;1.77;;
27847;SDS011;15212;48.830;8.730;2023-04-10T11:41:58;2.83;;;1.60;;
27847;SDS011;15212;48.830;8.730;2023-04-10T11:44:30;3.30;;;1.82;;
27847;SDS011;15212;48.830;8.730;2023-04-10T11:47:00;3.42;;;1.70;;
27847;SDS011;15212;48.830;8.730;2023-04-10T11:49:30;2.70;;;1.85;;
27847;SDS011;15212;48.830;8.730;2023-04-10T11:52:01;2.58;;;1.87;;
27847;SDS011;15212;48.830;8.730;2023-04-10T11:54:30;2.50;;;1.80;;
27847;SDS011;15212;48.830;8.730;2023-04-10T11:57:02;2.25;;;1.35;;
27847;SDS011;15212;48.830;8.730;2023-04-10T12:02:09;2.15;;;1.47;;
27847;SDS011;15212;48.830;8.730;2023-04-10T12:04:39;3.15;;;1.77;;
27847;SDS011;15212;48.830;8.730;2023-04-10T12:07:11;2.30;;;1.50;;
27847;SDS011;15212;48.830;8.730;2023-04-10T12:09:39;1.92;;;1.50;;
27847;SDS011;15212;48.830;8.730;2023-04-10T12:12:08;1.35;;;1.02;;
27847;SDS011;15212;48.830;8.730;2023-04-10T12:14:37;2.08;;;1.30;;
27847;SDS011;15212;48.830;8.730;2023-04-10T12:17:08;2.25;;;1.52;;
27847;SDS011;15212;48.830;8.730;2023-04-10T12:19:38;2.60;;;1.65;;
27847;SDS011;15212;48.830;8.730;2023-04-10T12:22:06;2.27;;;1.60;;
27847;SDS011;15212;48.830;8.730;2023-04-10T12:24:44;1.62;;;1.30;;
27847;SDS011;15212;48.830;8.730;2023-04-10T12:27:17;2.47;;;1.62;;
27847;SDS011;15212;48.830;8.730;2023-04-10T12:29:55;2.25;;;1.60;;
27847;SDS011;15212;48.830;8.730;2023-04-10T12:32:24;2.40;;;1.67;;
27847;SDS011;15212;48.830;8.730;2023-04-10T12:34:53;1.17;;;1.07;;
27847;SDS011;15212;48.830;8.730;2023-04-10T12:37:23;1.90;;;1.30;;
27847;SDS011;15212;48.830;8.730;2023-04-10T12:40:12;1.75;;;1.10;;
27847;SDS011;15212;48.830;8.730;2023-04-10T12:42:41;1.70;;;1.20;;
27847;SDS011;15212;48.830;8.730;2023-04-10T12:45:10;2.17;;;1.57;;
27847;SDS011;15212;48.830;8.730;2023-04-10T12:47:45;2.15;;;1.30;;
27847;SDS011;15212;48.830;8.730;2023-04-10T12:50:18;2.02;;;1.42;;
27847;SDS011;15212;48.830;8.730;2023-04-10T12:53:03;1.75;;;1.50;;
27847;SDS011;15212;48.830;8.730;2023-04-10T12:55:37;2.12;;;1.55;;
27847;SDS011;15212;48.830;8.730;2023-04-10T12:58:16;1.80;;;1.37;;
27847;SDS011;15212;48.830;8.730;2023-04-10T13:00:46;1.65;;;1.15;;
27847;SDS011;15212;48.830;8.730;2023-04-10T13:03:15;1.70;;;1.20;;
27847;SDS011;15212;48.830;8.730;2023-04-10T13:05:43;1.72;;;1.30;;
27847;SDS011;15212;48.830;8.730;2023-04-10T13:08:12;2.80;;;1.40;;
27847;SDS011;15212;48.830;8.730;2023-04-10T13:10:41;1.65;;;1.30;;
27847;SDS011;15212;48.830;8.730;2023-04-10T13:13:09;1.85;;;1.30;;
27847;SDS011;15212;48.830;8.730;2023-04-10T13:15:38;1.72;;;1.30;;
27847;SDS011;15212;48.830;8.730;2023-04-10T13:18:06;1.90;;;1.20;;
27847;SDS011;15212;48.830;8.730;2023-04-10T13:20:38;1.60;;;1.25;;
27847;SDS011;15212;48.830;8.730;2023-04-10T13:23:07;2.00;;;1.02;;
27847;SDS011;15212;48.830;8.730;2023-04-10T13:25:36;1.37;;;1.05;;
27847;SDS011;15212;48.830;8.730;2023-04-10T13:28:07;1.00;;;0.90;;
27847;SDS011;15212;48.830;8.730;2023-04-10T13:30:39;1.40;;;0.93;;
27847;SDS011;15212;48.830;8.730;2023-04-10T13:33:08;2.33;;;1.00;;
27847;SDS011;15212;48.830;8.730;2023-04-10T13:35:37;3.10;;;1.10;;
27847;SDS011;15212;48.830;8.730;2023-04-10T13:38:06;1.62;;;1.10;;
27847;SDS011;15212;48.830;8.730;2023-04-10T13:40:36;1.85;;;1.10;;
27847;SDS011;15212;48.830;8.730;2023-04-10T13:43:04;2.22;;;1.27;;
27847;SDS011;15212;48.830;8.730;2023-04-10T13:45:33;1.57;;;1.12;;
27847;SDS011;15212;48.830;8.730;2023-04-10T13:48:01;1.65;;;1.10;;
27847;SDS011;15212;48.830;8.730;2023-04-10T13:50:32;1.75;;;1.20;;
27847;SDS011;15212;48.830;8.730;2023-04-10T13:53:00;2.72;;;1.20;;
27847;SDS011;15212;48.830;8.730;2023-04-10T13:55:29;1.67;;;0.90;;
27847;SDS011;15212;48.830;8.730;2023-04-10T13:57:57;1.57;;;1.30;;
27847;SDS011;15212;48.830;8.730;2023-04-10T14:00:26;1.05;;;0.72;;
27847;SDS011;15212;48.830;8.730;2023-04-10T14:02:54;1.67;;;1.17;;
27847;SDS011;15212;48.830;8.730;2023-04-10T14:05:22;1.60;;;1.10;;
27847;SDS011;15212;48.830;8.730;2023-04-10T14:07:51;1.32;;;0.98;;
27847;SDS011;15212;48.830;8.730;2023-04-10T14:10:27;1.20;;;1.00;;
27847;SDS011;15212;48.830;8.730;2023-04-10T14:12:51;0.78;;;0.70;;
27847;SDS011;15212;48.830;8.730;2023-04-10T14:15:19;0.90;;;0.82;;
27847;SDS011;15212;48.830;8.730;2023-04-10T14:17:48;1.30;;;0.85;;
27847;SDS011;15212;48.830;8.730;2023-04-10T14:20:16;1.10;;;1.00;;
27847;SDS011;15212;48.830;8.730;2023-04-10T14:22:44;1.75;;;1.00;;
27847;SDS011;15212;48.830;8.730;2023-04-10T14:25:13;1.70;;;0.90;;
27847;SDS011;15212;48.830;8.730;2023-04-10T14:27:41;1.25;;;1.02;;
27847;SDS011;15212;48.830;8.730;2023-04-10T14:30:10;1.35;;;0.88;;
27847;SDS011;15212;48.830;8.730;2023-04-10T14:32:38;1.00;;;0.70;;
27847;SDS011;15212;48.830;8.730;2023-04-10T14:35:07;1.40;;;0.90;;
27847;SDS011;15212;48.830;8.730;2023-04-10T14:37:36;1.12;;;1.02;;
27847;SDS011;15212;48.830;8.730;2023-04-10T14:40:05;1.07;;;0.90;;
27847;SDS011;15212;48.830;8.730;2023-04-10T14:42:34;3.25;;;0.80;;
27847;SDS011;15212;48.830;8.730;2023-04-10T14:45:03;0.90;;;0.80;;
27847;SDS011;15212;48.830;8.730;2023-04-10T14:47:31;1.17;;;0.80;;
27847;SDS011;15212;48.830;8.730;2023-04-10T14:50:01;1.62;;;0.98;;
27847;SDS011;15212;48.830;8.730;2023-04-10T14:52:29;1.25;;;0.80;;
27847;SDS011;15212;48.830;8.730;2023-04-10T14:54:57;0.62;;;0.55;;
27847;SDS011;15212;48.830;8.730;2023-04-10T14:57:26;1.30;;;0.70;;
27847;SDS011;15212;48.830;8.730;2023-04-10T14:59:54;0.88;;;0.70;;
27847;SDS011;15212;48.830;8.730;2023-04-10T15:02:25;1.35;;;0.90;;
27847;SDS011;15212;48.830;8.730;2023-04-10T15:04:54;0.95;;;0.80;;
27847;SDS011;15212;48.830;8.730;2023-04-10T15:07:23;0.80;;;0.62;;
27847;SDS011;15212;48.830;8.730;2023-04-10T15:09:56;1.02;;;0.80;;
27847;SDS011;15212;48.830;8.730;2023-04-10T15:12:24;1.45;;;0.80;;
27847;SDS011;15212;48.830;8.730;2023-04-10T15:14:53;1.30;;;0.85;;
27847;SDS011;15212;48.830;8.730;2023-04-10T15:17:21;1.85;;;0.70;;
27847;SDS011;15212;48.830;8.730;2023-04-10T15:19:50;1.15;;;0.80;;
27847;SDS011;15212;48.830;8.730;2023-04-10T15:22:18;2.70;;;0.88;;
27847;SDS011;15212;48.830;8.730;2023-04-10T15:24:47;0.68;;;0.62;;
27847;SDS011;15212;48.830;8.730;2023-04-10T15:27:15;1.10;;;0.90;;
27847;SDS011;15212;48.830;8.730;2023-04-10T15:29:49;1.17;;;0.70;;